Time;durP1;ratioP1;P1;durP2;ratioP2;P2;SDS_P1;SDS_P2;PMS_P1;PMS_P2;Temp;Humidity;BMP_temperature;BMP_pressure;BME280_temperature;BME280_humidity;BME280_pressure;Samples;Min_cycle;Max_cycle;Signal;HPM_P1;HPM_P2
2022/11/04 00:00:28;;;;;;;26.20;12.90;;;;;;;;;;5027067;28;20574;-69
2022/11/04 00:02:55;;;;;;;27.00;12.73;;;;;;;;;;5010843;28;20443;-70
2022/11/04 00:05:22;;;;;;;32.47;14.70;;;;;;;;;;5012345;28;20451;-69
2022/11/04 00:13:19;;;;;;;19.47;11.50;;;;;;;;;;5022499;28;20492;-69
2022/11/04 00:18:30;;;;;;;23.03;11.33;;;;;;;;;;5012825;28;20476;-69
2022/11/04 00:29:27;;;;;;;18.37;9.50;;;;;;;;;;5022328;28;20434;-69
2022/11/04 00:34:38;;;;;;;22.73;10.57;;;;;;;;;;5012132;28;20513;-69
2022/11/04 00:37:05;;;;;;;25.70;11.00;;;;;;;;;;5011928;28;21402;-69
2022/11/04 00:39:32;;;;;;;21.00;10.27;;;;;;;;;;5012249;28;20530;-69
2022/11/04 00:41:58;;;;;;;20.90;10.73;;;;;;;;;;5012570;28;20538;-69
2022/11/04 00:44:25;;;;;;;18.37;9.77;;;;;;;;;;5012397;28;20439;-69
2022/11/04 00:46:51;;;;;;;17.80;10.20;;;;;;;;;;5029212;28;20438;-69
2022/11/04 00:49:18;;;;;;;22.17;10.83;;;;;;;;;;5024825;28;20883;-69
2022/11/04 00:51:44;;;;;;;20.37;10.93;;;;;;;;;;5011693;28;20471;-69
2022/11/04 00:54:11;;;;;;;21.03;11.80;;;;;;;;;;5011924;28;20497;-69
2022/11/04 00:56:38;;;;;;;26.20;11.40;;;;;;;;;;5012202;28;20427;-69
2022/11/04 00:59:04;;;;;;;22.30;11.53;;;;;;;;;;5012098;28;20772;-69
2022/11/04 01:01:35;;;;;;;28.93;13.07;;;;;;;;;;5010421;28;20439;-69
2022/11/04 01:04:19;;;;;;;21.90;12.03;;;;;;;;;;5011462;28;20441;-69
2022/11/04 01:06:46;;;;;;;24.77;11.20;;;;;;;;;;5026524;28;20455;-69
2022/11/04 01:09:30;;;;;;;22.67;11.43;;;;;;;;;;5029965;28;20790;-69
2022/11/04 01:11:57;;;;;;;28.17;11.23;;;;;;;;;;5017349;28;20542;-69
2022/11/04 01:14:23;;;;;;;23.30;11.13;;;;;;;;;;5010902;28;20192;-69
2022/11/04 01:16:50;;;;;;;21.60;10.23;;;;;;;;;;5014167;28;20240;-70
2022/11/04 01:19:17;;;;;;;16.40;9.73;;;;;;;;;;5010012;28;20234;-69
2022/11/04 01:21:43;;;;;;;18.77;10.03;;;;;;;;;;5005591;28;20277;-69
2022/11/04 01:24:10;;;;;;;23.30;9.63;;;;;;;;;;5010952;28;20622;-69
2022/11/04 01:26:36;;;;;;;17.43;8.67;;;;;;;;;;5029375;28;20528;-69
2022/11/04 01:29:03;;;;;;;15.97;8.70;;;;;;;;;;5023157;28;20215;-70
2022/11/04 01:31:29;;;;;;;14.70;8.27;;;;;;;;;;5014818;28;20343;-70
2022/11/04 01:33:56;;;;;;;18.77;9.33;;;;;;;;;;5026214;28;20192;-70
2022/11/04 01:36:23;;;;;;;16.97;9.17;;;;;;;;;;5009713;28;20184;-69
2022/11/04 01:38:50;;;;;;;16.20;8.70;;;;;;;;;;5025661;28;20254;-70
2022/11/04 01:41:23;;;;;;;15.90;8.50;;;;;;;;;;5017262;28;20810;-69
2022/11/04 01:43:50;;;;;;;20.10;9.23;;;;;;;;;;5022492;28;20207;-69
2022/11/04 01:46:20;;;;;;;15.37;8.43;;;;;;;;;;5010949;28;20279;-70
2022/11/04 01:48:46;;;;;;;19.27;9.03;;;;;;;;;;5017768;28;20275;-69
2022/11/04 01:51:13;;;;;;;20.13;9.50;;;;;;;;;;5029118;28;20223;-70
2022/11/04 01:53:40;;;;;;;19.80;9.80;;;;;;;;;;5029239;28;20219;-70
2022/11/04 01:56:10;;;;;;;19.80;9.30;;;;;;;;;;5027088;28;20613;-70
2022/11/04 01:58:38;;;;;;;19.17;9.30;;;;;;;;;;5009688;28;20223;-69
2022/11/04 02:01:05;;;;;;;14.30;8.40;;;;;;;;;;5023451;28;20241;-70
2022/11/04 02:03:33;;;;;;;14.77;8.67;;;;;;;;;;5025413;28;20299;-70
2022/11/04 02:05:59;;;;;;;15.10;7.90;;;;;;;;;;5024904;28;20189;-70
2022/11/04 02:08:26;;;;;;;14.53;8.07;;;;;;;;;;5015198;28;20200;-70
2022/11/04 02:10:57;;;;;;;18.73;8.43;;;;;;;;;;5022166;28;20478;-70
2022/11/04 02:13:24;;;;;;;15.77;7.70;;;;;;;;;;5021098;28;20211;-69
2022/11/04 02:16:00;;;;;;;19.13;7.43;;;;;;;;;;5009491;28;20727;-70
2022/11/04 02:18:32;;;;;;;18.47;7.87;;;;;;;;;;5019795;28;20257;-70
2022/11/04 02:20:59;;;;;;;15.43;7.73;;;;;;;;;;5027793;28;20191;-70
2022/11/04 02:23:44;;;;;;;16.10;7.80;;;;;;;;;;5029042;28;21041;-70
2022/11/04 02:26:26;;;;;;;18.17;7.53;;;;;;;;;;5013879;28;20204;-70
2022/11/04 02:29:01;;;;;;;17.70;8.10;;;;;;;;;;5009667;28;20196;-69
2022/11/04 02:31:27;;;;;;;18.33;7.63;;;;;;;;;;5009600;28;20196;-70
2022/11/04 02:33:56;;;;;;;18.60;7.87;;;;;;;;;;5009750;28;20612;-69
2022/11/04 02:36:42;;;;;;;18.40;7.37;;;;;;;;;;5017874;28;20239;-69
2022/11/04 02:39:25;;;;;;;18.17;8.27;;;;;;;;;;5013361;28;20194;-70
2022/11/04 02:41:55;;;;;;;14.80;7.50;;;;;;;;;;5020764;28;20283;-70
2022/11/04 02:44:47;;;;;;;11.57;6.77;;;;;;;;;;5016464;28;20176;-70
2022/11/04 02:47:24;;;;;;;15.77;7.50;;;;;;;;;;4992485;28;20191;-70
2022/11/04 02:50:08;;;;;;;12.67;7.60;;;;;;;;;;5014929;28;20219;-70
2022/11/04 02:52:54;;;;;;;14.27;6.80;;;;;;;;;;5023994;28;20195;-70
2022/11/04 02:55:39;;;;;;;11.33;7.10;;;;;;;;;;5009225;28;20625;-70
2022/11/04 02:58:06;;;;;;;16.50;6.97;;;;;;;;;;5009174;28;20216;-70
2022/11/04 03:00:32;;;;;;;17.53;7.13;;;;;;;;;;5008998;28;20220;-70
2022/11/04 03:03:00;;;;;;;16.60;8.03;;;;;;;;;;5021638;28;20199;-70
2022/11/04 03:05:31;;;;;;;17.13;8.07;;;;;;;;;;5018860;28;20208;-70
2022/11/04 03:07:59;;;;;;;14.97;6.80;;;;;;;;;;5025901;28;20222;-70
2022/11/04 03:10:30;;;;;;;14.90;7.33;;;;;;;;;;5010307;28;20314;-70
2022/11/04 03:12:57;;;;;;;14.80;7.00;;;;;;;;;;5013927;28;20752;-70
2022/11/04 03:15:26;;;;;;;14.30;6.90;;;;;;;;;;5007929;28;20732;-70
2022/11/04 03:17:52;;;;;;;12.17;6.57;;;;;;;;;;5016815;28;20614;-70
2022/11/04 03:20:22;;;;;;;14.57;6.70;;;;;;;;;;5020268;28;20185;-70
2022/11/04 03:22:49;;;;;;;15.90;7.07;;;;;;;;;;5019359;28;20648;-70
2022/11/04 03:25:15;;;;;;;15.60;7.13;;;;;;;;;;5026906;28;20710;-70
2022/11/04 03:27:50;;;;;;;14.03;6.80;;;;;;;;;;5017082;28;20195;-69
2022/11/04 03:30:17;;;;;;;12.10;6.13;;;;;;;;;;5010400;28;20222;-69
2022/11/04 03:32:47;;;;;;;12.43;6.60;;;;;;;;;;5013450;28;20568;-71
2022/11/04 03:35:14;;;;;;;14.40;6.80;;;;;;;;;;5013168;28;20207;-71
2022/11/04 03:37:58;;;;;;;12.90;6.57;;;;;;;;;;5017516;28;20214;-70
2022/11/04 03:40:24;;;;;;;13.47;6.53;;;;;;;;;;5022889;28;20371;-71
2022/11/04 03:43:10;;;;;;;13.23;6.97;;;;;;;;;;5020543;28;20211;-71
2022/11/04 03:45:37;;;;;;;13.90;7.00;;;;;;;;;;5012270;28;20245;-70
2022/11/04 03:48:04;;;;;;;14.63;7.20;;;;;;;;;;5026630;28;20732;-71
2022/11/04 03:50:31;;;;;;;12.27;6.57;;;;;;;;;;5028220;28;20338;-71
2022/11/04 03:52:58;;;;;;;15.67;6.60;;;;;;;;;;5011459;28;20590;-71
2022/11/04 03:55:29;;;;;;;13.20;6.50;;;;;;;;;;5011967;28;20263;-70
2022/11/04 03:58:02;;;;;;;13.57;6.07;;;;;;;;;;4995582;28;20212;-70
2022/11/04 04:00:32;;;;;;;17.17;6.27;;;;;;;;;;5011573;28;20275;-70
2022/11/04 04:02:59;;;;;;;15.63;6.47;;;;;;;;;;5011751;28;20188;-71
2022/11/04 04:05:41;;;;;;;16.67;6.67;;;;;;;;;;5018208;28;20234;-71
2022/11/04 04:08:11;;;;;;;12.90;6.13;;;;;;;;;;5011431;28;20261;-73
2022/11/04 04:11:05;;;;;;;11.20;6.33;;;;;;;;;;5033008;28;20184;-75
2022/11/04 04:13:35;;;;;;;11.33;5.97;;;;;;;;;;5031451;28;20223;-73
2022/11/04 04:16:07;;;;;;;11.17;5.80;;;;;;;;;;5033849;28;20195;-73
2022/11/04 04:18:41;;;;;;;17.40;6.53;;;;;;;;;;5028948;28;20226;-72
2022/11/04 04:21:09;;;;;;;12.57;5.90;;;;;;;;;;5028463;28;20230;-69
2022/11/04 04:29:07;;;;;;;12.93;6.10;;;;;;;;;;5029187;28;20206;-72
2022/11/04 04:31:50;;;;;;;12.90;6.07;;;;;;;;;;5032839;28;20266;-73
2022/11/04 04:34:29;;;;;;;12.73;6.07;;;;;;;;;;5029993;28;20828;-72
2022/11/04 04:37:00;;;;;;;9.77;5.40;;;;;;;;;;5036677;28;20595;-73
2022/11/04 04:45:33;;;;;;;16.10;6.37;;;;;;;;;;5030804;28;20288;-70
2022/11/04 04:48:00;;;;;;;14.83;5.70;;;;;;;;;;5031623;28;20925;-69
2022/11/04 04:50:27;;;;;;;12.67;5.80;;;;;;;;;;5025619;28;20227;-72
2022/11/04 04:52:55;;;;;;;12.73;6.23;;;;;;;;;;5011939;28;20308;-73
2022/11/04 04:55:21;;;;;;;13.93;6.73;;;;;;;;;;5025279;28;20646;-75
2022/11/04 04:57:48;;;;;;;9.10;5.63;;;;;;;;;;5034328;28;20219;-73
2022/11/04 05:00:15;;;;;;;17.97;6.43;;;;;;;;;;5031001;28;20274;-72
2022/11/04 05:02:42;;;;;;;17.83;7.17;;;;;;;;;;5032590;28;20668;-72
2022/11/04 05:05:09;;;;;;;13.17;5.70;;;;;;;;;;5029385;28;20184;-73
2022/11/04 05:07:36;;;;;;;13.00;6.23;;;;;;;;;;5026441;28;20190;-73
2022/11/04 05:10:03;;;;;;;17.33;6.83;;;;;;;;;;5026881;28;20187;-72
2022/11/04 05:13:24;;;;;;;15.80;6.40;;;;;;;;;;5027029;28;20222;-71
2022/11/04 05:15:16;;;;;;;10.33;5.70;;;;;;;;;;5022243;28;20277;-72
2022/11/04 05:17:43;;;;;;;11.70;5.93;;;;;;;;;;5024929;28;20199;-70
2022/11/04 05:20:09;;;;;;;14.90;5.83;;;;;;;;;;5025488;28;20852;-72
2022/11/04 05:22:36;;;;;;;11.00;5.40;;;;;;;;;;5030676;28;20528;-73
2022/11/04 05:25:03;;;;;;;12.40;6.10;;;;;;;;;;5033568;28;20195;-70
2022/11/04 05:27:29;;;;;;;10.70;5.57;;;;;;;;;;5030038;28;20217;-75
2022/11/04 05:29:56;;;;;;;9.67;5.87;;;;;;;;;;5030300;28;20211;-72
2022/11/04 05:32:22;;;;;;;10.20;5.93;;;;;;;;;;5029530;28;20305;-74
2022/11/04 05:34:49;;;;;;;11.67;5.87;;;;;;;;;;5036071;28;20270;-74
2022/11/04 05:37:16;;;;;;;12.17;6.30;;;;;;;;;;5033651;28;20270;-73
2022/11/04 05:39:42;;;;;;;11.77;5.90;;;;;;;;;;5035242;28;20258;-73
2022/11/04 05:42:09;;;;;;;11.20;6.00;;;;;;;;;;5029211;28;20230;-73
2022/11/04 05:44:35;;;;;;;11.00;6.63;;;;;;;;;;5012878;28;20196;-73
2022/11/04 05:47:02;;;;;;;11.33;5.80;;;;;;;;;;5015622;28;20219;-74
2022/11/04 05:49:29;;;;;;;12.70;5.30;;;;;;;;;;5023997;28;20870;-74
2022/11/04 05:51:55;;;;;;;14.07;6.20;;;;;;;;;;5020082;28;20283;-74
2022/11/04 05:54:22;;;;;;;12.60;5.83;;;;;;;;;;5030767;28;20188;-74
2022/11/04 05:56:50;;;;;;;12.93;5.93;;;;;;;;;;5028642;28;20618;-74
2022/11/04 05:59:17;;;;;;;11.23;6.07;;;;;;;;;;5011701;28;20242;-73
2022/11/04 06:01:43;;;;;;;14.33;6.10;;;;;;;;;;5026389;28;20582;-71
2022/11/04 06:04:14;;;;;;;16.87;6.43;;;;;;;;;;5026851;28;20200;-71
2022/11/04 06:06:41;;;;;;;15.13;7.20;;;;;;;;;;5030088;28;20272;-72
2022/11/04 06:09:08;;;;;;;16.80;8.57;;;;;;;;;;5030781;28;20183;-70
2022/11/04 06:11:34;;;;;;;16.90;7.87;;;;;;;;;;5031588;28;20690;-71
2022/11/04 06:14:01;;;;;;;12.70;6.50;;;;;;;;;;5027599;28;20180;-71
2022/11/04 06:16:28;;;;;;;15.00;6.50;;;;;;;;;;5026112;28;20187;-70
2022/11/04 06:18:54;;;;;;;12.67;6.40;;;;;;;;;;5033043;28;20768;-70
2022/11/04 06:21:27;;;;;;;15.27;6.13;;;;;;;;;;5034883;28;20180;-71
2022/11/04 06:23:56;;;;;;;9.67;5.80;;;;;;;;;;5028104;28;20279;-72
2022/11/04 06:26:23;;;;;;;12.87;6.50;;;;;;;;;;5025685;28;20587;-71
2022/11/04 06:28:53;;;;;;;14.13;6.10;;;;;;;;;;5028525;28;20253;-71
2022/11/04 06:31:20;;;;;;;15.47;6.53;;;;;;;;;;5025186;28;20207;-72
2022/11/04 06:33:47;;;;;;;14.53;6.43;;;;;;;;;;5026906;28;20194;-71
2022/11/04 06:36:14;;;;;;;13.77;6.77;;;;;;;;;;5023654;28;20547;-72
2022/11/04 06:38:41;;;;;;;15.37;7.53;;;;;;;;;;5011691;28;20299;-72
2022/11/04 06:41:09;;;;;;;15.73;7.70;;;;;;;;;;5025314;28;20250;-70
2022/11/04 06:43:36;;;;;;;12.53;7.20;;;;;;;;;;5013475;28;20196;-71
2022/11/04 06:46:03;;;;;;;14.33;7.43;;;;;;;;;;5008531;28;20681;-71
2022/11/04 06:48:29;;;;;;;14.43;7.10;;;;;;;;;;5010027;28;20188;-71
2022/11/04 06:50:57;;;;;;;14.20;7.43;;;;;;;;;;5010213;28;20224;-71
2022/11/04 06:53:25;;;;;;;16.87;7.70;;;;;;;;;;5008320;28;20200;-71
2022/11/04 06:55:51;;;;;;;13.97;7.80;;;;;;;;;;5011666;28;20774;-72
2022/11/04 06:58:19;;;;;;;13.43;7.17;;;;;;;;;;5031281;28;20212;-71
2022/11/04 07:00:49;;;;;;;11.33;6.57;;;;;;;;;;5002475;28;20191;-71
2022/11/04 07:03:16;;;;;;;14.13;6.63;;;;;;;;;;5017515;28;20206;-71
2022/11/04 07:05:43;;;;;;;12.10;6.50;;;;;;;;;;5018336;28;20192;-71
2022/11/04 07:08:10;;;;;;;11.60;5.70;;;;;;;;;;5025426;28;20241;-71
2022/11/04 07:10:37;;;;;;;12.50;6.20;;;;;;;;;;5020769;28;20559;-71
2022/11/04 07:13:04;;;;;;;14.00;6.23;;;;;;;;;;5012930;28;20195;-71
2022/11/04 07:15:32;;;;;;;10.20;5.70;;;;;;;;;;5026667;28;20215;-75
2022/11/04 07:17:58;;;;;;;13.53;6.60;;;;;;;;;;5030833;28;20191;-71
2022/11/04 07:20:25;;;;;;;14.03;6.40;;;;;;;;;;5035688;28;20276;-71
2022/11/04 07:22:55;;;;;;;16.53;6.67;;;;;;;;;;5031460;28;20203;-71
2022/11/04 07:25:21;;;;;;;20.23;9.10;;;;;;;;;;5026717;28;20713;-71
2022/11/04 07:27:48;;;;;;;32.67;15.57;;;;;;;;;;5024122;28;20242;-72
2022/11/04 07:30:15;;;;;;;25.80;12.80;;;;;;;;;;5041769;28;20194;-72
2022/11/04 07:32:42;;;;;;;19.90;10.30;;;;;;;;;;5028548;28;20696;-73
2022/11/04 07:35:09;;;;;;;16.60;7.63;;;;;;;;;;5038812;28;20190;-71
2022/11/04 07:37:54;;;;;;;20.37;8.53;;;;;;;;;;5030040;28;20171;-72
2022/11/04 07:40:20;;;;;;;13.87;7.23;;;;;;;;;;5018436;28;20638;-69
2022/11/04 07:42:47;;;;;;;15.67;7.93;;;;;;;;;;5021627;28;20196;-69
2022/11/04 07:45:16;;;;;;;16.60;7.50;;;;;;;;;;5023892;28;20195;-69
2022/11/04 07:47:43;;;;;;;13.23;7.33;;;;;;;;;;5026683;28;20220;-75
2022/11/04 07:50:09;;;;;;;20.60;8.23;;;;;;;;;;5033454;28;20995;-73
2022/11/04 07:52:37;;;;;;;13.60;6.90;;;;;;;;;;5036798;28;20200;-75
2022/11/04 07:55:04;;;;;;;12.90;6.57;;;;;;;;;;5027470;28;20195;-75
2022/11/04 07:57:31;;;;;;;14.10;8.67;;;;;;;;;;5029098;28;20256;-73
2022/11/04 07:59:58;;;;;;;13.90;6.77;;;;;;;;;;5026512;28;20767;-71
2022/11/04 08:02:25;;;;;;;10.97;6.50;;;;;;;;;;5025147;28;20509;-73
2022/11/04 08:04:59;;;;;;;11.20;6.60;;;;;;;;;;5035121;28;20273;-72
2022/11/04 08:07:26;;;;;;;15.07;7.80;;;;;;;;;;5028732;28;20203;-75
2022/11/04 08:09:53;;;;;;;14.57;7.10;;;;;;;;;;5032394;28;20191;-73
2022/11/04 08:12:22;;;;;;;12.90;7.23;;;;;;;;;;5024798;28;20237;-72
2022/11/04 08:14:49;;;;;;;11.57;6.03;;;;;;;;;;5014387;28;20285;-72
2022/11/04 08:17:16;;;;;;;9.80;6.27;;;;;;;;;;5029341;28;20195;-72
2022/11/04 08:19:43;;;;;;;14.33;6.77;;;;;;;;;;5037221;28;20207;-69
2022/11/04 08:22:10;;;;;;;16.93;8.67;;;;;;;;;;5027921;28;20294;-72
2022/11/04 08:24:37;;;;;;;12.53;6.87;;;;;;;;;;5033505;28;20252;-71
2022/11/04 08:27:04;;;;;;;16.57;7.03;;;;;;;;;;5024183;28;20232;-73
2022/11/04 08:29:31;;;;;;;12.53;6.40;;;;;;;;;;5029068;28;20286;-73
2022/11/04 08:31:58;;;;;;;12.53;7.77;;;;;;;;;;5029912;28;20195;-68
2022/11/04 08:34:24;;;;;;;12.60;6.53;;;;;;;;;;5033541;28;20585;-68
2022/11/04 08:36:56;;;;;;;13.57;7.10;;;;;;;;;;5032279;28;20188;-70
2022/11/04 08:39:23;;;;;;;14.10;6.83;;;;;;;;;;5031161;28;20836;-70
2022/11/04 08:41:52;;;;;;;11.67;7.00;;;;;;;;;;5029992;28;20682;-72
2022/11/04 08:44:19;;;;;;;10.63;6.17;;;;;;;;;;5012896;28;20269;-72
2022/11/04 08:46:45;;;;;;;11.77;6.87;;;;;;;;;;5007471;28;20203;-72
2022/11/04 08:49:12;;;;;;;13.13;7.00;;;;;;;;;;5020692;28;20244;-71
2022/11/04 08:51:48;;;;;;;11.23;6.73;;;;;;;;;;5014136;28;20196;-70
2022/11/04 08:54:16;;;;;;;10.80;6.00;;;;;;;;;;5024283;28;20646;-71
2022/11/04 08:56:43;;;;;;;11.97;6.70;;;;;;;;;;5029025;28;20199;-71
2022/11/04 08:59:10;;;;;;;10.80;5.93;;;;;;;;;;5048064;28;20242;-69
2022/11/04 09:01:39;;;;;;;11.77;5.87;;;;;;;;;;5044053;28;20230;-70
2022/11/04 09:04:06;;;;;;;10.03;6.13;;;;;;;;;;5028277;28;20184;-69
2022/11/04 09:06:34;;;;;;;15.80;7.93;;;;;;;;;;5033895;28;20839;-72
2022/11/04 09:09:03;;;;;;;12.43;6.00;;;;;;;;;;5041993;28;20278;-72
2022/11/04 09:11:30;;;;;;;11.00;6.40;;;;;;;;;;5034633;28;20658;-72
2022/11/04 09:13:59;;;;;;;11.63;6.20;;;;;;;;;;5030327;28;20237;-72
2022/11/04 09:16:27;;;;;;;10.67;6.23;;;;;;;;;;5023601;28;20282;-72
2022/11/04 09:18:54;;;;;;;12.00;6.40;;;;;;;;;;5024879;28;20210;-72
2022/11/04 09:21:21;;;;;;;12.37;6.43;;;;;;;;;;5027317;28;20248;-70
2022/11/04 09:23:48;;;;;;;11.47;6.20;;;;;;;;;;5033024;28;20759;-70
2022/11/04 09:26:14;;;;;;;11.80;6.20;;;;;;;;;;5033566;28;20666;-69
2022/11/04 09:28:41;;;;;;;12.33;6.70;;;;;;;;;;5028115;28;20675;-69
2022/11/04 09:31:09;;;;;;;13.03;6.80;;;;;;;;;;5024139;28;20253;-70
2022/11/04 09:33:36;;;;;;;10.93;5.80;;;;;;;;;;5026857;28;20270;-71
2022/11/04 09:36:03;;;;;;;11.37;6.60;;;;;;;;;;5013383;28;20539;-70
2022/11/04 09:38:31;;;;;;;10.03;6.67;;;;;;;;;;5026692;28;20274;-71
2022/11/04 09:40:58;;;;;;;13.07;6.90;;;;;;;;;;5029530;28;20226;-71
2022/11/04 09:43:25;;;;;;;12.00;6.37;;;;;;;;;;5026255;28;20187;-71
2022/11/04 09:45:52;;;;;;;12.10;6.47;;;;;;;;;;5028557;28;20174;-72
2022/11/04 09:48:22;;;;;;;13.07;6.83;;;;;;;;;;5028656;28;20947;-70
2022/11/04 09:50:53;;;;;;;11.00;6.23;;;;;;;;;;5024263;28;20232;-73
2022/11/04 09:53:30;;;;;;;15.27;7.37;;;;;;;;;;5033593;28;20589;-70
2022/11/04 09:55:57;;;;;;;9.87;6.50;;;;;;;;;;5029637;28;20199;-69
2022/11/04 09:58:42;;;;;;;11.73;7.13;;;;;;;;;;5029121;28;20182;-72
2022/11/04 10:01:09;;;;;;;12.80;6.80;;;;;;;;;;5024463;28;20222;-70
2022/11/04 10:03:51;;;;;;;11.20;6.37;;;;;;;;;;5031235;28;20199;-71
2022/11/04 10:06:37;;;;;;;12.17;6.37;;;;;;;;;;5028697;28;20206;-72
2022/11/04 10:09:13;;;;;;;8.57;6.30;;;;;;;;;;5008882;28;20348;-71
2022/11/04 10:12:01;;;;;;;12.03;6.63;;;;;;;;;;5024623;28;20706;-72
2022/11/04 10:14:50;;;;;;;8.33;6.03;;;;;;;;;;5023414;28;20268;-71
2022/11/04 10:17:37;;;;;;;12.40;6.80;;;;;;;;;;5025028;28;20195;-71
2022/11/04 10:20:07;;;;;;;9.73;6.47;;;;;;;;;;5015766;28;20300;-73
2022/11/04 10:22:40;;;;;;;12.63;6.40;;;;;;;;;;5031898;28;20194;-72
2022/11/04 10:25:27;;;;;;;11.53;6.00;;;;;;;;;;5028287;28;20262;-72
2022/11/04 10:27:53;;;;;;;10.70;6.20;;;;;;;;;;5027330;28;20203;-73
2022/11/04 10:30:21;;;;;;;12.47;6.43;;;;;;;;;;5026463;28;20325;-73
2022/11/04 10:33:02;;;;;;;9.57;6.23;;;;;;;;;;5029686;28;20217;-72
2022/11/04 10:35:32;;;;;;;11.50;6.00;;;;;;;;;;5027733;28;20203;-71
2022/11/04 10:38:12;;;;;;;12.37;7.37;;;;;;;;;;5033383;28;20729;-70
2022/11/04 10:40:38;;;;;;;12.60;6.47;;;;;;;;;;5031078;28;20214;-70
2022/11/04 10:43:07;;;;;;;13.23;7.00;;;;;;;;;;5034839;28;20191;-69
2022/11/04 10:45:53;;;;;;;10.53;6.33;;;;;;;;;;5030871;28;20244;-70
2022/11/04 10:48:21;;;;;;;13.17;6.70;;;;;;;;;;5034653;28;20257;-68
2022/11/04 10:50:51;;;;;;;14.50;6.83;;;;;;;;;;5027336;28;20278;-71
2022/11/04 10:53:18;;;;;;;10.70;6.67;;;;;;;;;;5024613;28;20211;-74
2022/11/04 10:55:53;;;;;;;10.90;7.10;;;;;;;;;;5023923;28;20218;-68
2022/11/04 10:58:22;;;;;;;17.43;6.60;;;;;;;;;;5027111;28;20713;-73
2022/11/04 11:00:49;;;;;;;12.37;6.43;;;;;;;;;;5034850;28;20694;-73
2022/11/04 11:03:22;;;;;;;11.87;6.93;;;;;;;;;;5028819;28;20196;-72
2022/11/04 11:05:49;;;;;;;12.57;6.53;;;;;;;;;;5027459;28;20609;-71
2022/11/04 11:08:32;;;;;;;12.20;6.90;;;;;;;;;;5024939;28;20222;-70
2022/11/04 11:10:59;;;;;;;11.90;6.27;;;;;;;;;;5027699;28;20191;-71
2022/11/04 11:13:26;;;;;;;10.50;6.60;;;;;;;;;;5032070;28;20317;-68
2022/11/04 11:16:19;;;;;;;10.87;6.63;;;;;;;;;;5027773;28;20264;-68
2022/11/04 11:19:06;;;;;;;11.60;6.50;;;;;;;;;;5029538;28;20198;-69
2022/11/04 11:21:40;;;;;;;13.33;6.47;;;;;;;;;;5026230;28;20213;-72
2022/11/04 11:24:11;;;;;;;11.00;6.67;;;;;;;;;;5033402;28;20221;-73
2022/11/04 11:26:38;;;;;;;11.37;7.37;;;;;;;;;;5033189;28;20199;-72
2022/11/04 11:29:06;;;;;;;12.83;7.67;;;;;;;;;;5029808;28;20298;-72
2022/11/04 11:31:36;;;;;;;13.40;7.30;;;;;;;;;;5009531;28;20315;-71
2022/11/04 11:34:03;;;;;;;14.00;8.17;;;;;;;;;;5034281;28;20194;-73
2022/11/04 11:36:30;;;;;;;13.10;7.33;;;;;;;;;;5031013;28;20674;-69
2022/11/04 11:39:02;;;;;;;15.67;7.47;;;;;;;;;;5031277;28;20566;-73
2022/11/04 11:41:32;;;;;;;15.03;7.60;;;;;;;;;;5024991;28;20229;-72
2022/11/04 11:44:00;;;;;;;11.47;7.23;;;;;;;;;;5029228;28;20182;-72
2022/11/04 11:46:28;;;;;;;14.63;7.83;;;;;;;;;;5030131;28;20186;-72
2022/11/04 11:49:00;;;;;;;12.37;7.30;;;;;;;;;;5030991;28;20546;-69
2022/11/04 11:51:27;;;;;;;12.03;7.27;;;;;;;;;;5033387;28;20238;-70
2022/11/04 11:54:21;;;;;;;12.53;7.20;;;;;;;;;;5032864;28;20551;-71
2022/11/04 11:56:52;;;;;;;12.37;7.70;;;;;;;;;;5030628;28;21044;-69
2022/11/04 11:59:41;;;;;;;12.93;7.03;;;;;;;;;;5029197;28;20215;-69
2022/11/04 12:02:33;;;;;;;17.03;7.70;;;;;;;;;;5028512;28;20172;-70
2022/11/04 12:05:00;;;;;;;14.43;8.23;;;;;;;;;;5030175;28;20206;-69
2022/11/04 12:07:47;;;;;;;11.10;7.50;;;;;;;;;;5035251;28;20206;-72
2022/11/04 12:10:39;;;;;;;12.43;7.73;;;;;;;;;;5037463;28;20195;-72
2022/11/04 12:13:47;;;;;;;17.60;8.63;;;;;;;;;;5032656;28;20216;-72
2022/11/04 12:16:53;;;;;;;13.83;8.53;;;;;;;;;;5032087;28;20199;-72
2022/11/04 12:19:20;;;;;;;16.10;7.40;;;;;;;;;;4989335;28;21767;-71
2022/11/04 12:21:49;;;;;;;10.73;7.20;;;;;;;;;;4991030;28;20189;-71
2022/11/04 12:24:23;;;;;;;15.93;7.07;;;;;;;;;;5003606;28;20207;-70
2022/11/04 12:26:49;;;;;;;14.93;7.70;;;;;;;;;;5034184;28;20253;-72
2022/11/04 12:29:29;;;;;;;15.67;7.50;;;;;;;;;;5035272;28;20195;-71
2022/11/04 12:32:01;;;;;;;17.63;7.77;;;;;;;;;;5047344;28;20230;-71
2022/11/04 12:34:44;;;;;;;11.17;6.80;;;;;;;;;;5031086;28;20309;-68
2022/11/04 12:37:10;;;;;;;14.07;7.77;;;;;;;;;;5031458;28;20199;-68
2022/11/04 12:39:38;;;;;;;14.50;7.30;;;;;;;;;;5036325;28;20184;-70
2022/11/04 12:42:07;;;;;;;13.30;7.70;;;;;;;;;;5035189;28;20227;-68
2022/11/04 12:45:24;;;;;;;12.63;7.53;;;;;;;;;;5035711;28;20191;-69
2022/11/04 12:47:50;;;;;;;15.77;7.30;;;;;;;;;;5014269;28;20580;-69
2022/11/04 12:50:17;;;;;;;13.80;7.43;;;;;;;;;;5038256;28;20266;-69
2022/11/04 12:53:00;;;;;;;12.77;7.37;;;;;;;;;;5031328;28;20199;-68
2022/11/04 12:55:36;;;;;;;11.60;7.17;;;;;;;;;;5035070;28;20449;-69
2022/11/04 12:58:12;;;;;;;16.20;8.30;;;;;;;;;;5030572;28;20218;-69
2022/11/04 13:00:40;;;;;;;11.03;7.30;;;;;;;;;;5038222;28;20223;-69
2022/11/04 13:03:12;;;;;;;12.77;7.17;;;;;;;;;;5040926;28;20186;-69
2022/11/04 13:05:41;;;;;;;16.10;7.33;;;;;;;;;;5033019;28;20610;-69
2022/11/04 13:08:31;;;;;;;16.67;8.53;;;;;;;;;;5028477;28;20248;-69
2022/11/04 13:11:00;;;;;;;11.93;7.37;;;;;;;;;;5015086;28;20208;-70
2022/11/04 13:13:30;;;;;;;13.17;7.73;;;;;;;;;;5027030;28;20215;-69
2022/11/04 13:15:57;;;;;;;13.83;7.80;;;;;;;;;;5035306;28;20191;-69
2022/11/04 13:18:25;;;;;;;15.13;7.57;;;;;;;;;;5028187;28;20952;-73
2022/11/04 13:21:02;;;;;;;10.37;7.03;;;;;;;;;;5035139;28;20704;-72
2022/11/04 13:23:35;;;;;;;15.03;7.87;;;;;;;;;;5031142;28;21384;-70
2022/11/04 13:26:02;;;;;;;12.47;7.20;;;;;;;;;;5032849;28;20195;-72
2022/11/04 13:28:29;;;;;;;12.60;7.60;;;;;;;;;;5034625;28;20198;-73
2022/11/04 13:31:01;;;;;;;12.67;7.83;;;;;;;;;;5039288;28;20685;-69
2022/11/04 13:33:32;;;;;;;13.80;8.20;;;;;;;;;;5032718;28;20618;-71
2022/11/04 13:36:11;;;;;;;13.73;7.37;;;;;;;;;;5032348;28;20223;-69
2022/11/04 13:38:43;;;;;;;11.70;7.87;;;;;;;;;;5019588;28;20209;-70
2022/11/04 13:41:15;;;;;;;13.73;7.43;;;;;;;;;;5025562;28;20250;-72
2022/11/04 13:43:57;;;;;;;14.43;7.97;;;;;;;;;;5030408;28;20197;-71
2022/11/04 13:46:29;;;;;;;13.77;7.47;;;;;;;;;;5014859;28;20225;-71
2022/11/04 13:49:02;;;;;;;18.57;9.80;;;;;;;;;;5032383;28;20574;-70
2022/11/04 13:51:32;;;;;;;16.73;8.77;;;;;;;;;;5032725;28;20278;-69
2022/11/04 13:53:59;;;;;;;13.93;8.23;;;;;;;;;;5029340;28;20206;-71
2022/11/04 13:56:26;;;;;;;14.50;8.37;;;;;;;;;;5029840;28;20217;-71
2022/11/04 13:59:19;;;;;;;16.67;9.07;;;;;;;;;;5031312;28;20810;-71
2022/11/04 14:01:46;;;;;;;14.80;8.30;;;;;;;;;;5003056;28;20230;-71
2022/11/04 14:04:16;;;;;;;15.33;8.87;;;;;;;;;;5028726;28;20671;-70
2022/11/04 14:06:59;;;;;;;17.37;8.60;;;;;;;;;;5032396;28;20222;-70
2022/11/04 14:09:32;;;;;;;17.53;8.27;;;;;;;;;;5031356;28;21110;-71
2022/11/04 14:12:16;;;;;;;15.57;9.30;;;;;;;;;;5031830;28;20204;-72
2022/11/04 14:14:43;;;;;;;15.17;9.60;;;;;;;;;;5033150;28;20199;-72
2022/11/04 14:17:29;;;;;;;18.30;9.33;;;;;;;;;;5034053;28;20197;-71
2022/11/04 14:19:57;;;;;;;14.83;8.20;;;;;;;;;;5032945;28;20665;-71
2022/11/04 14:22:26;;;;;;;13.97;9.00;;;;;;;;;;5030941;28;20544;-71
2022/11/04 14:24:53;;;;;;;16.23;9.20;;;;;;;;;;5024869;28;20203;-71
2022/11/04 14:27:23;;;;;;;13.67;8.87;;;;;;;;;;5030969;28;20213;-71
2022/11/04 14:29:50;;;;;;;14.87;9.77;;;;;;;;;;5030244;28;20195;-72
2022/11/04 14:32:17;;;;;;;13.50;9.00;;;;;;;;;;5000253;28;20206;-71
2022/11/04 14:34:44;;;;;;;15.00;8.97;;;;;;;;;;5028047;28;20279;-71
2022/11/04 14:37:14;;;;;;;16.47;9.43;;;;;;;;;;5032964;28;20194;-71
2022/11/04 14:39:41;;;;;;;17.90;9.40;;;;;;;;;;5036206;28;20195;-71
2022/11/04 14:42:10;;;;;;;14.37;9.30;;;;;;;;;;5033512;28;20270;-70
2022/11/04 14:44:40;;;;;;;17.10;9.40;;;;;;;;;;5033055;28;20197;-70
2022/11/04 14:47:28;;;;;;;15.83;8.90;;;;;;;;;;5035796;28;20318;-70
2022/11/04 14:50:16;;;;;;;14.33;9.00;;;;;;;;;;5039695;28;20572;-70
2022/11/04 14:52:42;;;;;;;15.27;8.87;;;;;;;;;;5013999;28;20321;-70
2022/11/04 14:55:10;;;;;;;13.73;8.57;;;;;;;;;;5028828;28;20179;-70
2022/11/04 14:57:44;;;;;;;16.13;9.87;;;;;;;;;;5035105;28;20205;-71
2022/11/04 15:00:23;;;;;;;14.40;8.83;;;;;;;;;;5036259;28;20191;-71
2022/11/04 15:03:08;;;;;;;16.07;10.67;;;;;;;;;;5031601;28;20563;-70
2022/11/04 15:05:38;;;;;;;18.30;11.67;;;;;;;;;;5031040;28;20202;-70
2022/11/04 15:08:24;;;;;;;16.10;10.63;;;;;;;;;;5033000;28;20199;-71
2022/11/04 15:10:50;;;;;;;18.53;10.70;;;;;;;;;;5035037;28;20229;-70
2022/11/04 15:13:18;;;;;;;15.37;10.27;;;;;;;;;;5032293;28;20202;-71
2022/11/04 15:15:49;;;;;;;21.10;10.40;;;;;;;;;;5037991;28;20195;-72
2022/11/04 15:18:25;;;;;;;17.50;9.60;;;;;;;;;;5029403;28;20279;-68
2022/11/04 15:20:55;;;;;;;20.17;11.23;;;;;;;;;;5032462;28;20889;-69